Time;durP1;ratioP1;P1;durP2;ratioP2;P2;SDS_P1;SDS_P2;PMS_P1;PMS_P2;Temp;Humidity;BMP_temperature;BMP_pressure;BME280_temperature;BME280_humidity;BME280_pressure;Samples;Min_cycle;Max_cycle;Signal;HPM_P1;HPM_P2
2023/05/07 00:00:25;;;;;;;7.00;6.40;;;12.80;99.90;;;;;;5008758;28;20464;-67
2023/05/07 00:02:52;;;;;;;7.50;6.80;;;12.80;99.90;;;;;;5007505;28;20853;-67
2023/05/07 00:05:20;;;;;;;7.73;7.03;;;13.00;99.90;;;;;;5008420;28;20531;-67
2023/05/07 00:07:48;;;;;;;7.10;6.40;;;13.00;99.90;;;;;;5008861;28;20441;-66
2023/05/07 00:10:16;;;;;;;8.57;6.93;;;13.00;99.90;;;;;;5000623;28;20458;-67
2023/05/07 00:12:43;;;;;;;8.40;6.73;;;12.90;99.90;;;;;;5010599;28;20448;-66
2023/05/07 00:15:10;;;;;;;7.03;6.43;;;12.90;99.90;;;;;;5019939;28;20472;-66
2023/05/07 00:17:37;;;;;;;8.37;6.20;;;12.90;99.90;;;;;;5016871;28;20496;-67
2023/05/07 00:20:05;;;;;;;7.20;6.50;;;12.90;99.90;;;;;;5007916;28;20531;-66
2023/05/07 00:22:32;;;;;;;7.13;6.53;;;12.80;99.90;;;;;;5007656;28;20892;-67
2023/05/07 00:25:00;;;;;;;11.03;6.50;;;12.70;99.90;;;;;;5000504;28;20497;-68
2023/05/07 00:27:28;;;;;;;7.60;6.97;;;12.70;99.90;;;;;;5007994;28;20535;-67
2023/05/07 00:29:54;;;;;;;7.23;6.53;;;12.70;99.90;;;;;;5008268;28;20453;-67
2023/05/07 00:32:21;;;;;;;6.70;6.20;;;12.60;99.90;;;;;;5007816;28;20892;-67
2023/05/07 00:34:49;;;;;;;7.60;6.17;;;12.80;99.90;;;;;;5019786;28;21053;-69
2023/05/07 00:37:15;;;;;;;8.73;6.83;;;12.80;99.90;;;;;;5027435;28;20520;-67
2023/05/07 00:39:42;;;;;;;6.17;5.57;;;12.70;99.90;;;;;;5027910;28;20480;-67
2023/05/07 00:42:09;;;;;;;7.07;6.40;;;12.60;99.90;;;;;;5016741;28;21046;-66
2023/05/07 00:44:43;;;;;;;8.63;6.43;;;12.60;99.90;;;;;;5018460;28;20474;-67
2023/05/07 00:47:11;;;;;;;6.83;6.13;;;12.50;99.90;;;;;;5026660;28;20460;-67
2023/05/07 00:49:40;;;;;;;7.43;6.70;;;12.50;99.90;;;;;;5027882;28;21055;-66
2023/05/07 00:52:08;;;;;;;8.10;7.40;;;12.50;99.90;;;;;;5027214;28;20478;-67
2023/05/07 00:54:35;;;;;;;7.80;7.10;;;12.40;99.90;;;;;;5026101;28;20477;-68
2023/05/07 00:57:03;;;;;;;8.80;7.90;;;12.30;99.90;;;;;;5027095;28;20495;-68
2023/05/07 00:59:31;;;;;;;8.47;7.67;;;12.30;99.90;;;;;;5027236;28;20446;-67
2023/05/07 01:01:59;;;;;;;9.40;8.50;;;12.20;99.90;;;;;;5022640;28;20453;-67
2023/05/07 01:04:27;;;;;;;8.87;7.97;;;12.30;99.90;;;;;;5007695;28;20477;-67
2023/05/07 01:06:56;;;;;;;9.83;7.87;;;12.20;99.90;;;;;;5008481;28;20454;-67
2023/05/07 01:09:23;;;;;;;9.20;8.17;;;12.00;99.90;;;;;;5008170;28;20455;-67
2023/05/07 01:11:51;;;;;;;8.70;7.87;;;12.10;99.90;;;;;;5011801;28;20466;-67
2023/05/07 01:14:20;;;;;;;11.03;9.90;;;12.00;99.90;;;;;;5027770;28;20472;-67
2023/05/07 01:16:47;;;;;;;9.33;8.10;;;12.10;99.90;;;;;;5029938;28;20460;-67
2023/05/07 01:19:18;;;;;;;9.10;8.00;;;12.00;99.90;;;;;;5029396;28;20481;-68
2023/05/07 01:21:47;;;;;;;10.27;8.80;;;11.90;99.90;;;;;;5029566;28;20545;-67
2023/05/07 01:24:16;;;;;;;8.90;8.00;;;11.80;99.90;;;;;;5028454;28;20494;-67
2023/05/07 01:26:44;;;;;;;8.67;7.67;;;11.80;99.90;;;;;;5029605;28;20453;-67
2023/05/07 01:29:11;;;;;;;8.80;7.90;;;11.90;99.90;;;;;;5029682;28;20449;-67
2023/05/07 01:31:39;;;;;;;9.80;8.90;;;11.90;99.90;;;;;;5029665;28;20543;-67
2023/05/07 01:34:08;;;;;;;8.60;7.67;;;11.80;99.90;;;;;;5028483;28;20835;-67
2023/05/07 01:36:36;;;;;;;10.30;9.30;;;11.70;99.90;;;;;;5029189;28;20964;-68
2023/05/07 01:39:03;;;;;;;8.73;7.93;;;11.70;99.90;;;;;;5029526;28;20488;-67
2023/05/07 01:41:31;;;;;;;11.07;9.20;;;11.70;99.90;;;;;;5015739;28;20510;-67
2023/05/07 01:44:00;;;;;;;8.47;7.77;;;11.70;99.90;;;;;;5008269;28;20469;-68
2023/05/07 01:46:27;;;;;;;9.70;8.73;;;11.60;99.90;;;;;;5009818;28;20460;-67
2023/05/07 01:48:54;;;;;;;8.77;7.93;;;11.60;99.90;;;;;;5009795;28;20842;-68
2023/05/07 01:51:22;;;;;;;17.70;8.37;;;11.70;99.90;;;;;;5009743;28;20456;-68
2023/05/07 01:53:50;;;;;;;7.53;6.83;;;11.80;99.90;;;;;;5007662;28;20495;-68
2023/05/07 01:56:17;;;;;;;8.30;7.60;;;11.80;99.90;;;;;;5009921;28;20456;-67
2023/05/07 01:58:46;;;;;;;8.20;7.27;;;11.80;99.90;;;;;;5012442;28;20894;-68
2023/05/07 02:01:14;;;;;;;7.40;6.80;;;11.80;99.90;;;;;;5012910;28;20449;-67
2023/05/07 02:03:40;;;;;;;8.97;7.93;;;11.80;99.90;;;;;;5011639;28;20453;-68
2023/05/07 02:06:07;;;;;;;8.20;7.40;;;11.70;99.90;;;;;;5013375;28;20818;-67
2023/05/07 02:08:34;;;;;;;8.13;6.87;;;11.80;99.90;;;;;;5013303;28;20453;-67
2023/05/07 02:11:01;;;;;;;7.33;6.63;;;11.70;99.90;;;;;;5013026;28;20489;-68
2023/05/07 02:13:30;;;;;;;7.10;6.50;;;11.70;99.90;;;;;;5012182;28;20798;-68
2023/05/07 02:15:58;;;;;;;8.27;7.37;;;11.70;99.90;;;;;;5012826;28;20983;-68
2023/05/07 02:18:25;;;;;;;8.97;7.97;;;11.80;99.90;;;;;;5013133;28;20493;-67
2023/05/07 02:20:52;;;;;;;9.37;8.10;;;11.70;99.90;;;;;;5013247;28;20467;-67
2023/05/07 02:23:19;;;;;;;8.20;7.40;;;11.70;99.90;;;;;;5011702;28;20443;-66
2023/05/07 02:25:46;;;;;;;7.70;6.90;;;11.80;99.90;;;;;;5012902;28;20473;-67
2023/05/07 02:28:13;;;;;;;7.30;6.37;;;11.90;99.90;;;;;;5012921;28;20460;-67
2023/05/07 02:30:40;;;;;;;8.20;7.10;;;11.90;99.90;;;;;;5012889;28;20448;-68
2023/05/07 02:33:08;;;;;;;6.90;6.30;;;11.90;99.90;;;;;;5011930;28;20550;-67
2023/05/07 02:35:35;;;;;;;7.60;6.90;;;11.90;99.90;;;;;;5017365;28;20494;-67
2023/05/07 02:38:02;;;;;;;8.30;7.53;;;11.80;99.90;;;;;;5032594;28;20483;-67
2023/05/07 02:40:29;;;;;;;11.63;7.40;;;11.80;99.90;;;;;;5032173;28;20467;-67
2023/05/07 02:42:56;;;;;;;7.47;6.77;;;11.80;99.90;;;;;;5031148;28;20983;-68
2023/05/07 02:45:23;;;;;;;7.33;6.40;;;11.80;99.90;;;;;;5032321;28;20477;-68
2023/05/07 02:47:50;;;;;;;7.60;6.63;;;11.80;99.90;;;;;;5032159;28;20451;-67
2023/05/07 02:50:18;;;;;;;7.40;6.70;;;11.80;99.90;;;;;;5032462;28;20547;-67
2023/05/07 02:52:45;;;;;;;8.13;7.33;;;11.70;99.90;;;;;;5030842;28;20466;-67
2023/05/07 02:55:12;;;;;;;8.33;6.00;;;11.60;99.90;;;;;;5032066;28;20560;-69
2023/05/07 02:57:38;;;;;;;7.47;6.77;;;11.50;99.90;;;;;;5031878;28;20448;-67
2023/05/07 03:00:13;;;;;;;7.87;6.03;;;11.40;99.90;;;;;;5032406;28;20968;-67
2023/05/07 03:02:40;;;;;;;7.10;6.50;;;11.30;99.90;;;;;;5031241;28;20449;-67
2023/05/07 03:05:07;;;;;;;8.20;7.50;;;11.30;99.90;;;;;;5031696;28;20472;-67
2023/05/07 03:07:36;;;;;;;7.20;6.50;;;11.20;99.90;;;;;;5032253;28;20451;-68
2023/05/07 03:10:03;;;;;;;7.40;6.73;;;11.20;99.90;;;;;;5030821;28;20445;-68
2023/05/07 03:12:31;;;;;;;7.40;6.70;;;11.20;99.90;;;;;;5031166;28;20449;-68
2023/05/07 03:14:58;;;;;;;7.97;7.27;;;11.30;99.90;;;;;;5031496;28;20463;-67
2023/05/07 03:17:24;;;;;;;7.50;6.80;;;11.30;99.90;;;;;;5031739;28;20443;-67
2023/05/07 03:19:51;;;;;;;10.07;7.10;;;11.20;99.90;;;;;;5031681;28;20491;-67
2023/05/07 03:22:18;;;;;;;10.80;8.37;;;11.00;99.90;;;;;;5031054;28;20447;-66
2023/05/07 03:24:46;;;;;;;12.60;7.77;;;10.90;99.90;;;;;;5031043;28;20469;-68
2023/05/07 03:27:13;;;;;;;9.03;8.13;;;10.80;99.90;;;;;;5031415;28;20472;-68
2023/05/07 03:29:40;;;;;;;10.07;8.10;;;10.90;99.90;;;;;;5031816;28;20454;-66
2023/05/07 03:32:07;;;;;;;7.87;7.27;;;10.90;99.90;;;;;;5030887;28;21176;-67
2023/05/07 03:34:33;;;;;;;14.50;7.40;;;10.90;99.90;;;;;;5030565;28;20478;-67
2023/05/07 03:37:01;;;;;;;8.80;8.03;;;10.80;99.90;;;;;;5031335;28;20558;-67
2023/05/07 03:39:28;;;;;;;8.53;7.73;;;10.90;99.90;;;;;;5031140;28;21042;-66
2023/05/07 03:41:56;;;;;;;8.43;7.63;;;10.90;99.90;;;;;;5031708;28;20964;-67
2023/05/07 03:44:23;;;;;;;8.43;7.70;;;10.70;99.90;;;;;;5029818;28;21005;-66
2023/05/07 03:46:50;;;;;;;8.23;7.57;;;10.70;99.90;;;;;;5031617;28;20477;-67
2023/05/07 03:49:17;;;;;;;8.73;7.80;;;10.80;99.90;;;;;;5031264;28;20819;-67
2023/05/07 03:51:43;;;;;;;7.40;6.70;;;10.80;99.90;;;;;;5031292;28;20452;-66
2023/05/07 03:54:10;;;;;;;9.07;6.70;;;10.80;99.90;;;;;;5029610;28;20467;-67
2023/05/07 03:56:37;;;;;;;6.87;6.27;;;10.80;99.90;;;;;;5031124;28;20459;-66
2023/05/07 03:59:05;;;;;;;8.47;7.23;;;10.70;99.90;;;;;;5031079;28;20475;-68
2023/05/07 04:01:32;;;;;;;8.47;7.60;;;10.70;99.90;;;;;;5030851;28;20449;-68
2023/05/07 04:03:59;;;;;;;8.00;7.20;;;10.70;99.90;;;;;;5029648;28;20478;-66
2023/05/07 04:06:26;;;;;;;9.37;6.30;;;10.70;99.90;;;;;;5030887;28;20445;-67
2023/05/07 04:08:52;;;;;;;7.43;6.73;;;10.60;99.90;;;;;;5031100;28;20450;-68
2023/05/07 04:11:20;;;;;;;10.00;7.40;;;10.60;99.90;;;;;;5031157;28;20525;-67
2023/05/07 04:13:47;;;;;;;8.97;5.60;;;10.60;99.90;;;;;;5029174;28;21002;-67
2023/05/07 04:16:15;;;;;;;6.90;5.97;;;10.70;99.90;;;;;;5030856;28;20454;-67
2023/05/07 04:18:42;;;;;;;6.80;6.10;;;10.80;99.90;;;;;;5030137;28;20866;-67
2023/05/07 04:21:15;;;;;;;7.60;6.90;;;10.80;99.90;;;;;;5030452;28;20454;-69
2023/05/07 04:23:42;;;;;;;7.50;6.80;;;10.80;99.90;;;;;;5029233;28;20457;-67
2023/05/07 04:26:09;;;;;;;6.90;6.20;;;10.80;99.90;;;;;;5030606;28;21144;-67
2023/05/07 04:28:36;;;;;;;6.30;5.67;;;10.90;99.90;;;;;;5030654;28;20467;-68
2023/05/07 04:31:03;;;;;;;7.00;6.40;;;10.90;99.90;;;;;;5030254;28;20450;-68
2023/05/07 04:33:31;;;;;;;6.40;5.80;;;10.90;99.90;;;;;;5029434;28;20455;-68
2023/05/07 04:36:02;;;;;;;7.93;6.70;;;11.00;99.90;;;;;;5030357;28;20853;-67
2023/05/07 04:38:29;;;;;;;6.17;5.60;;;11.20;99.90;;;;;;5030634;28;20921;-67
2023/05/07 04:40:56;;;;;;;6.03;5.50;;;11.40;99.90;;;;;;5030288;28;20456;-68
2023/05/07 04:43:23;;;;;;;6.17;5.63;;;11.50;99.90;;;;;;5029466;28;21179;-68
2023/05/07 04:45:51;;;;;;;5.93;5.40;;;11.60;99.90;;;;;;5030287;28;20467;-67
2023/05/07 04:48:19;;;;;;;6.63;6.00;;;11.70;99.90;;;;;;5030835;28;20447;-67
2023/05/07 04:50:48;;;;;;;6.27;5.63;;;11.90;99.90;;;;;;5030648;28;20973;-67
2023/05/07 04:53:15;;;;;;;6.30;5.27;;;12.00;99.90;;;;;;5029181;28;20450;-67
2023/05/07 04:55:42;;;;;;;6.43;5.60;;;12.00;99.90;;;;;;5030305;28;20526;-66
2023/05/07 04:58:09;;;;;;;8.03;5.87;;;12.10;99.90;;;;;;5030467;28;20491;-68
2023/05/07 05:00:36;;;;;;;5.77;5.27;;;12.00;99.90;;;;;;5030085;28;20532;-67
2023/05/07 05:03:03;;;;;;;5.67;5.17;;;12.00;99.90;;;;;;5029239;28;20447;-67
2023/05/07 05:05:30;;;;;;;6.27;5.77;;;11.90;99.90;;;;;;5029767;28;20490;-67
2023/05/07 05:07:58;;;;;;;5.50;5.00;;;12.00;99.90;;;;;;5030157;28;20522;-67
2023/05/07 05:10:25;;;;;;;5.80;4.93;;;11.90;99.90;;;;;;5029654;28;20447;-67
2023/05/07 05:12:52;;;;;;;5.07;4.67;;;12.00;99.90;;;;;;5028665;28;20995;-67
2023/05/07 05:15:19;;;;;;;6.03;4.57;;;12.00;99.90;;;;;;5029512;28;20479;-66
2023/05/07 05:17:45;;;;;;;4.93;4.53;;;12.10;99.90;;;;;;5029811;28;20444;-67
2023/05/07 05:20:12;;;;;;;5.47;4.97;;;12.00;99.90;;;;;;5029695;28;20544;-68
2023/05/07 05:22:39;;;;;;;5.23;4.80;;;12.10;99.90;;;;;;5028130;28;20961;-67
2023/05/07 05:25:08;;;;;;;6.00;5.50;;;12.20;99.90;;;;;;5029571;28;20469;-67
2023/05/07 05:27:35;;;;;;;6.37;5.13;;;12.30;99.90;;;;;;5029401;28;20454;-68
2023/05/07 05:30:02;;;;;;;5.30;4.90;;;12.30;99.90;;;;;;5029770;28;20456;-68
2023/05/07 05:32:29;;;;;;;7.20;5.30;;;12.30;99.90;;;;;;5029518;28;20458;-66
2023/05/07 05:34:56;;;;;;;4.80;4.40;;;12.20;99.90;;;;;;5033441;28;20475;-67
2023/05/07 05:37:23;;;;;;;6.70;4.80;;;12.20;99.90;;;;;;5033923;28;20452;-67
2023/05/07 05:39:50;;;;;;;6.80;4.90;;;12.30;99.90;;;;;;5033509;28;20471;-67
2023/05/07 05:42:18;;;;;;;5.20;4.73;;;12.40;99.90;;;;;;5033674;28;20460;-68
2023/05/07 05:44:45;;;;;;;5.20;4.80;;;12.80;99.90;;;;;;5032651;28;20469;-69
2023/05/07 05:47:11;;;;;;;4.17;3.77;;;13.30;99.90;;;;;;5033951;28;20457;-66
2023/05/07 05:49:38;;;;;;;4.87;4.47;;;13.70;99.90;;;;;;5033879;28;20847;-67
2023/05/07 05:52:05;;;;;;;4.70;4.13;;;14.00;99.30;;;;;;5033210;28;20532;-69
2023/05/07 05:54:32;;;;;;;6.83;4.43;;;14.20;98.80;;;;;;5032138;28;20531;-67
2023/05/07 05:56:59;;;;;;;4.90;4.40;;;14.30;98.30;;;;;;5033497;28;20562;-67
2023/05/07 05:59:27;;;;;;;4.80;4.40;;;14.30;97.40;;;;;;5033557;28;20504;-68
2023/05/07 06:01:54;;;;;;;4.53;4.13;;;14.20;96.60;;;;;;5033333;28;20816;-67
2023/05/07 06:04:21;;;;;;;5.47;4.70;;;14.20;96.40;;;;;;5032014;28;20479;-68
2023/05/07 06:06:47;;;;;;;5.03;3.90;;;14.20;96.80;;;;;;5033410;28;20836;-68
2023/05/07 06:09:14;;;;;;;4.50;4.03;;;14.40;96.60;;;;;;5032878;28;20448;-67
2023/05/07 06:11:41;;;;;;;5.07;4.63;;;14.50;95.70;;;;;;5033494;28;20537;-67
2023/05/07 06:14:08;;;;;;;4.40;4.10;;;14.60;95.30;;;;;;5031446;28;20461;-68
2023/05/07 06:16:37;;;;;;;8.47;5.20;;;14.70;94.80;;;;;;5033214;28;20448;-67
2023/05/07 06:19:04;;;;;;;4.87;4.50;;;14.80;95.40;;;;;;5032760;28;20486;-69
2023/05/07 06:21:31;;;;;;;5.90;4.47;;;14.80;95.20;;;;;;5033073;28;20448;-67
2023/05/07 06:23:58;;;;;;;6.17;4.63;;;14.90;95.90;;;;;;5031361;28;20461;-67
2023/05/07 06:26:25;;;;;;;4.80;4.30;;;15.10;95.40;;;;;;5032872;28;20437;-68
2023/05/07 06:28:52;;;;;;;4.57;4.17;;;15.10;94.20;;;;;;5032830;28;20458;-67
2023/05/07 06:31:20;;;;;;;4.90;4.50;;;15.00;94.10;;;;;;5032511;28;20929;-68
2023/05/07 06:33:49;;;;;;;5.30;4.10;;;15.00;94.50;;;;;;5031355;28;20441;-68
2023/05/07 06:36:16;;;;;;;4.20;3.80;;;15.00;94.80;;;;;;5032331;28;20985;-69
2023/05/07 06:38:43;;;;;;;5.60;4.53;;;15.10;94.50;;;;;;5032504;28;20915;-68
2023/05/07 06:41:10;;;;;;;4.70;4.30;;;15.10;94.80;;;;;;5032535;28;20482;-68
2023/05/07 06:43:37;;;;;;;6.40;5.80;;;15.00;94.70;;;;;;5030691;28;20439;-67
2023/05/07 06:46:04;;;;;;;4.33;3.93;;;15.00;94.30;;;;;;5032590;28;20444;-68
2023/05/07 06:48:30;;;;;;;4.30;3.90;;;15.00;95.30;;;;;;5032352;28;20465;-67
2023/05/07 06:50:59;;;;;;;4.40;4.00;;;15.00;95.40;;;;;;5032751;28;20452;-67
2023/05/07 06:53:26;;;;;;;4.20;3.90;;;15.10;95.10;;;;;;5031128;28;20884;-68
2023/05/07 06:55:53;;;;;;;4.30;4.00;;;15.30;94.40;;;;;;5032352;28;20475;-68
2023/05/07 06:58:20;;;;;;;5.40;4.20;;;15.50;93.40;;;;;;5032294;28;20454;-67
2023/05/07 07:00:47;;;;;;;4.47;4.07;;;15.60;93.40;;;;;;5031989;28;20516;-69
2023/05/07 07:03:14;;;;;;;4.37;3.97;;;15.70;92.80;;;;;;5030955;28;20455;-68
2023/05/07 07:05:41;;;;;;;3.73;3.43;;;15.80;92.80;;;;;;5031550;28;20467;-67
2023/05/07 07:08:11;;;;;;;3.47;3.27;;;16.00;92.90;;;;;;5032092;28;21005;-68
2023/05/07 07:10:38;;;;;;;3.57;3.20;;;16.20;91.50;;;;;;5032028;28;20440;-67
2023/05/07 07:13:04;;;;;;;3.83;3.53;;;16.30;91.00;;;;;;5030801;28;20432;-68
2023/05/07 07:15:31;;;;;;;4.13;3.70;;;16.50;91.10;;;;;;5031593;28;20467;-68
2023/05/07 07:17:58;;;;;;;3.90;3.50;;;16.80;90.00;;;;;;5031606;28;20429;-68
2023/05/07 07:20:27;;;;;;;4.40;3.73;;;17.00;88.40;;;;;;5031987;28;20481;-69
2023/05/07 07:22:53;;;;;;;4.37;3.87;;;17.20;85.80;;;;;;5030767;28;20447;-69
2023/05/07 07:25:22;;;;;;;4.63;4.23;;;17.40;85.50;;;;;;5031545;28;20459;-69
2023/05/07 07:27:48;;;;;;;4.23;3.83;;;17.70;85.50;;;;;;5031557;28;20443;-67
2023/05/07 07:30:15;;;;;;;5.33;4.13;;;17.90;82.20;;;;;;5031755;28;20439;-68
2023/05/07 07:32:42;;;;;;;4.87;4.37;;;18.10;80.50;;;;;;5030500;28;20878;-67
2023/05/07 07:35:10;;;;;;;4.33;4.00;;;18.10;80.80;;;;;;5031301;28;20526;-67
2023/05/07 07:37:36;;;;;;;6.53;4.70;;;18.40;79.10;;;;;;5031805;28;20484;-66
2023/05/07 07:40:04;;;;;;;4.00;3.57;;;18.70;76.80;;;;;;5031577;28;20502;-65
2023/05/07 07:42:32;;;;;;;4.60;4.20;;;19.10;76.70;;;;;;5031064;28;20487;-66
2023/05/07 07:44:59;;;;;;;3.37;3.17;;;19.20;76.50;;;;;;5031726;28;20465;-62
2023/05/07 07:47:25;;;;;;;4.13;3.30;;;19.50;75.50;;;;;;5031761;28;20437;-64
2023/05/07 07:49:52;;;;;;;3.33;3.13;;;20.00;77.40;;;;;;5032064;28;20443;-66
2023/05/07 07:52:19;;;;;;;4.00;3.40;;;20.50;72.40;;;;;;5031244;28;20805;-65
2023/05/07 07:54:46;;;;;;;3.53;3.23;;;21.10;70.10;;;;;;5030299;28;20457;-67
2023/05/07 07:57:13;;;;;;;4.20;3.17;;;21.40;67.50;;;;;;5031004;28;20445;-65
2023/05/07 07:59:42;;;;;;;4.10;3.80;;;21.70;66.00;;;;;;5031099;28;20519;-66
2023/05/07 08:02:09;;;;;;;3.90;3.50;;;21.30;63.50;;;;;;5030295;28;20906;-67
2023/05/07 08:04:37;;;;;;;3.60;3.33;;;21.00;68.50;;;;;;5031421;28;20218;-67
2023/05/07 08:07:04;;;;;;;3.63;3.33;;;21.20;64.30;;;;;;5020373;28;20474;-66
2023/05/07 08:09:30;;;;;;;3.47;3.17;;;21.40;62.60;;;;;;5007781;28;20545;-67
2023/05/07 08:11:57;;;;;;;4.00;3.47;;;21.70;66.70;;;;;;5009167;28;20446;-68
2023/05/07 08:14:24;;;;;;;3.87;3.57;;;21.90;64.80;;;;;;5007656;28;20828;-67
2023/05/07 08:16:52;;;;;;;4.10;3.70;;;22.00;64.50;;;;;;5009382;28;20446;-67
2023/05/07 08:19:19;;;;;;;3.87;3.57;;;22.10;59.30;;;;;;5009213;28;20812;-67
2023/05/07 08:21:47;;;;;;;3.70;3.40;;;22.20;59.80;;;;;;5009689;28;20437;-71
2023/05/07 08:24:14;;;;;;;4.30;3.30;;;22.30;62.80;;;;;;5008275;28;20465;-66
2023/05/07 08:26:41;;;;;;;4.60;3.70;;;22.60;59.60;;;;;;5005657;28;20434;-67
2023/05/07 08:29:08;;;;;;;4.70;3.90;;;22.60;57.40;;;;;;4998949;28;20807;-68
2023/05/07 08:31:35;;;;;;;3.80;3.50;;;22.60;59.50;;;;;;4999804;28;20446;-68
2023/05/07 08:34:04;;;;;;;3.60;3.30;;;22.80;58.50;;;;;;5002212;28;20468;-67
2023/05/07 08:36:31;;;;;;;4.43;3.50;;;22.80;58.60;;;;;;5028522;28;20456;-67
2023/05/07 08:38:58;;;;;;;5.60;3.77;;;23.00;61.00;;;;;;5028739;28;20543;-68
2023/05/07 08:41:25;;;;;;;4.40;4.00;;;23.00;61.20;;;;;;5028733;28;20479;-68
2023/05/07 08:43:52;;;;;;;3.60;3.40;;;22.90;61.20;;;;;;5027158;28;20822;-67
2023/05/07 08:46:20;;;;;;;3.93;3.63;;;22.90;58.10;;;;;;5028759;28;20935;-66
2023/05/07 08:48:49;;;;;;;4.47;4.03;;;22.90;59.10;;;;;;5028405;28;20471;-67
2023/05/07 08:51:19;;;;;;;5.13;4.70;;;22.90;60.00;;;;;;5028647;28;20448;-67
2023/05/07 08:53:48;;;;;;;5.10;4.20;;;23.00;58.70;;;;;;5026768;28;20955;-67
2023/05/07 08:56:16;;;;;;;4.33;4.03;;;23.00;57.30;;;;;;5028370;28;20451;-66
2023/05/07 08:58:45;;;;;;;4.10;3.70;;;23.00;60.20;;;;;;5028275;28;20448;-66
2023/05/07 09:01:15;;;;;;;5.27;4.80;;;23.00;62.00;;;;;;5028406;28;20481;-67
2023/05/07 09:03:45;;;;;;;5.93;4.03;;;23.20;58.90;;;;;;5027524;28;20971;-68
2023/05/07 09:06:12;;;;;;;4.70;4.30;;;23.30;59.90;;;;;;5028899;28;20450;-67
2023/05/07 09:08:41;;;;;;;4.80;4.40;;;23.40;59.50;;;;;;5029076;28;20449;-66
2023/05/07 09:11:08;;;;;;;4.43;4.03;;;23.50;56.70;;;;;;4999433;28;21067;-66
2023/05/07 09:13:35;;;;;;;4.30;4.00;;;23.60;60.80;;;;;;4997937;28;20485;-65
2023/05/07 09:16:12;;;;;;;4.23;3.93;;;23.80;58.50;;;;;;4993993;28;20472;-65
2023/05/07 09:18:42;;;;;;;4.00;3.70;;;23.60;57.90;;;;;;4996523;28;20505;-66
2023/05/07 09:21:11;;;;;;;4.63;4.23;;;23.90;59.60;;;;;;4994449;28;20481;-67
2023/05/07 09:23:38;;;;;;;4.43;4.03;;;24.20;58.10;;;;;;4997229;28;20446;-66
2023/05/07 09:26:11;;;;;;;3.97;3.43;;;24.30;55.20;;;;;;4997304;28;20457;-66
2023/05/07 09:28:41;;;;;;;4.00;3.70;;;24.50;58.20;;;;;;4997369;28;20450;-65
2023/05/07 09:31:07;;;;;;;4.30;3.90;;;24.70;57.20;;;;;;4998235;28;20496;-65
2023/05/07 09:33:35;;;;;;;4.70;4.30;;;24.80;55.20;;;;;;4996304;28;21279;-66
2023/05/07 09:36:04;;;;;;;4.17;3.87;;;24.40;55.10;;;;;;4995463;28;20550;-66
2023/05/07 09:38:32;;;;;;;4.63;4.23;;;24.40;58.70;;;;;;4998878;28;20441;-66
2023/05/07 09:41:04;;;;;;;5.47;5.00;;;24.70;57.80;;;;;;4996879;28;20997;-66
2023/05/07 09:43:35;;;;;;;4.30;3.90;;;24.80;54.00;;;;;;4996944;28;20967;-66
2023/05/07 09:46:04;;;;;;;3.97;3.63;;;25.10;53.80;;;;;;4993961;28;20466;-67
2023/05/07 09:48:31;;;;;;;4.60;4.20;;;25.10;54.40;;;;;;4998741;28;20450;-66
2023/05/07 09:51:02;;;;;;;3.60;3.20;;;25.70;53.80;;;;;;4997280;28;20443;-67
2023/05/07 09:53:30;;;;;;;4.83;4.47;;;26.00;54.10;;;;;;4991962;28;20447;-66
2023/05/07 09:55:58;;;;;;;4.07;3.80;;;26.10;51.60;;;;;;5001399;28;20475;-66
2023/05/07 09:58:26;;;;;;;3.90;3.60;;;25.60;54.30;;;;;;4988107;28;20529;-67
2023/05/07 10:00:56;;;;;;;4.50;3.80;;;25.30;53.80;;;;;;4988290;28;20488;-67
2023/05/07 10:03:25;;;;;;;4.00;3.70;;;25.10;54.60;;;;;;5003218;28;20450;-66
2023/05/07 10:05:54;;;;;;;4.10;3.70;;;25.40;55.40;;;;;;4993947;28;21173;-67
2023/05/07 10:08:21;;;;;;;3.50;3.20;;;25.80;52.50;;;;;;4996000;28;20720;-67
2023/05/07 10:10:48;;;;;;;3.97;3.67;;;25.90;51.90;;;;;;5007882;28;20533;-66
2023/05/07 10:13:15;;;;;;;4.33;3.97;;;26.10;50.70;;;;;;4998603;28;20794;-67
2023/05/07 10:15:42;;;;;;;3.37;3.17;;;25.70;53.10;;;;;;4999045;28;20477;-67
2023/05/07 10:18:12;;;;;;;3.20;3.00;;;25.60;53.80;;;;;;4993504;28;20449;-69
2023/05/07 10:20:40;;;;;;;3.50;3.20;;;25.90;50.40;;;;;;5008007;28;20485;-66
2023/05/07 10:23:09;;;;;;;4.00;3.60;;;26.30;50.70;;;;;;4997008;28;20445;-67
2023/05/07 10:25:36;;;;;;;3.70;3.40;;;26.30;51.40;;;;;;5000935;28;21082;-66
2023/05/07 10:28:09;;;;;;;6.00;3.87;;;26.50;52.70;;;;;;5005339;28;20807;-65
2023/05/07 10:30:46;;;;;;;4.30;3.00;;;26.60;53.60;;;;;;4995370;28;20445;-65
2023/05/07 10:33:18;;;;;;;3.30;3.00;;;26.40;50.50;;;;;;4998134;28;20445;-66
2023/05/07 10:35:47;;;;;;;4.20;3.80;;;26.20;52.10;;;;;;5002298;28;20536;-65
2023/05/07 10:38:14;;;;;;;3.50;3.20;;;26.50;50.40;;;;;;4992583;28;20442;-68
2023/05/07 10:40:41;;;;;;;4.70;2.73;;;26.40;49.00;;;;;;5007388;28;20486;-65
2023/05/07 10:43:08;;;;;;;3.10;2.80;;;26.60;50.60;;;;;;4999338;28;20446;-66
2023/05/07 10:45:35;;;;;;;3.80;3.10;;;26.90;49.60;;;;;;5000544;28;20473;-65
2023/05/07 10:48:12;;;;;;;3.47;3.17;;;26.90;52.10;;;;;;5003931;28;20464;-66
2023/05/07 10:50:41;;;;;;;3.67;3.37;;;26.70;51.90;;;;;;5000782;28;20578;-65
2023/05/07 10:53:27;;;;;;;3.47;3.00;;;26.50;50.60;;;;;;5008057;28;20945;-67
2023/05/07 10:56:28;;;;;;;3.50;3.10;;;26.20;54.90;;;;;;4997614;28;20463;-67
2023/05/07 10:58:55;;;;;;;3.20;2.90;;;26.00;50.10;;;;;;4995557;28;20453;-65
2023/05/07 11:01:54;;;;;;;4.00;3.27;;;26.00;54.20;;;;;;4999291;28;20868;-67
2023/05/07 11:04:26;;;;;;;3.27;3.07;;;26.20;54.20;;;;;;4995412;28;20485;-64
2023/05/07 11:07:28;;;;;;;4.53;3.23;;;26.40;55.40;;;;;;4993471;28;20457;-66
2023/05/07 11:10:07;;;;;;;4.10;3.50;;;26.80;50.40;;;;;;4997849;28;20472;-64
2023/05/07 11:12:53;;;;;;;3.10;2.90;;;26.30;50.70;;;;;;4998780;28;20922;-66
2023/05/07 11:15:44;;;;;;;3.50;2.90;;;26.10;50.20;;;;;;4998646;28;20462;-66
2023/05/07 11:18:13;;;;;;;3.90;3.27;;;25.90;50.40;;;;;;5003795;28;20462;-67
2023/05/07 11:20:59;;;;;;;3.13;2.93;;;26.20;50.70;;;;;;5004032;28;20481;-67
2023/05/07 11:23:59;;;;;;;3.23;2.90;;;26.00;49.80;;;;;;5003671;28;20445;-66
2023/05/07 11:26:27;;;;;;;3.43;2.90;;;25.40;49.50;;;;;;5003761;28;20455;-65
2023/05/07 11:28:54;;;;;;;3.53;3.23;;;24.80;53.10;;;;;;4994375;28;20962;-68
2023/05/07 11:31:23;;;;;;;3.57;2.97;;;24.60;53.70;;;;;;4993763;28;20453;-66
2023/05/07 11:33:50;;;;;;;6.73;3.57;;;24.40;52.50;;;;;;4999661;28;20434;-69
2023/05/07 11:36:17;;;;;;;4.23;3.27;;;24.20;54.00;;;;;;4990057;28;20849;-69
2023/05/07 11:38:44;;;;;;;3.73;2.90;;;24.20;51.60;;;;;;4989395;28;20877;-69
2023/05/07 11:41:12;;;;;;;3.37;3.07;;;24.40;52.70;;;;;;4989589;28;20486;-69
2023/05/07 11:43:53;;;;;;;3.50;3.20;;;24.50;51.70;;;;;;4989120;28;20546;-69
2023/05/07 11:46:21;;;;;;;4.50;3.47;;;24.60;52.70;;;;;;5003601;28;20476;-67
2023/05/07 11:48:48;;;;;;;3.93;3.63;;;24.50;52.20;;;;;;5009583;28;20442;-69
2023/05/07 11:51:20;;;;;;;3.70;3.27;;;24.30;53.60;;;;;;5004424;28;20460;-68
2023/05/07 11:53:47;;;;;;;4.90;3.23;;;24.10;53.70;;;;;;5008412;28;20484;-67
2023/05/07 11:56:17;;;;;;;2.97;2.77;;;24.10;52.10;;;;;;5009727;28;20541;-68
2023/05/07 11:58:45;;;;;;;3.57;2.37;;;24.00;52.40;;;;;;5009865;28;20544;-69
2023/05/07 12:01:13;;;;;;;3.10;2.60;;;23.90;52.80;;;;;;4989076;28;20494;-68
2023/05/07 12:03:43;;;;;;;3.03;2.73;;;23.80;53.40;;;;;;4987280;28;20542;-69
2023/05/07 12:06:11;;;;;;;3.10;2.83;;;23.80;52.70;;;;;;5001962;28;20446;-69
2023/05/07 12:08:39;;;;;;;6.07;2.47;;;23.70;53.30;;;;;;5008371;28;20445;-68
2023/05/07 12:11:11;;;;;;;3.10;2.80;;;23.60;53.30;;;;;;4990795;28;20469;-68
2023/05/07 12:13:39;;;;;;;3.10;2.87;;;23.60;57.00;;;;;;4987495;28;20549;-68
2023/05/07 12:16:08;;;;;;;3.77;2.83;;;23.50;57.00;;;;;;4988547;28;20439;-70
2023/05/07 12:18:36;;;;;;;7.20;2.90;;;23.50;55.80;;;;;;4988817;28;20832;-68
2023/05/07 12:21:05;;;;;;;3.40;3.10;;;23.40;58.10;;;;;;4988772;28;20501;-69
2023/05/07 12:23:32;;;;;;;5.40;2.87;;;23.40;55.70;;;;;;4987567;28;20446;-68
2023/05/07 12:26:00;;;;;;;5.30;2.53;;;23.30;59.30;;;;;;4988656;28;20467;-68
2023/05/07 12:28:27;;;;;;;3.17;2.77;;;23.10;57.90;;;;;;4988701;28;20973;-69
2023/05/07 12:30:56;;;;;;;3.40;3.10;;;23.00;58.70;;;;;;4988711;28;20536;-69
2023/05/07 12:33:25;;;;;;;4.80;2.67;;;22.90;59.40;;;;;;4987867;28;20486;-70
2023/05/07 12:35:55;;;;;;;3.00;2.70;;;22.90;57.60;;;;;;4988034;28;20493;-69
2023/05/07 12:38:21;;;;;;;5.13;3.47;;;22.80;58.20;;;;;;4988548;28;20902;-69
2023/05/07 12:40:50;;;;;;;3.57;3.27;;;22.70;59.40;;;;;;4987990;28;20941;-69
2023/05/07 12:43:18;;;;;;;3.23;2.90;;;22.70;62.00;;;;;;4987792;28;20462;-69
2023/05/07 12:45:47;;;;;;;4.47;2.93;;;22.40;61.90;;;;;;5002639;28;20474;-70
2023/05/07 12:48:15;;;;;;;5.50;3.80;;;22.10;64.50;;;;;;5007790;28;20533;-70
2023/05/07 12:50:42;;;;;;;4.37;3.97;;;21.70;66.50;;;;;;4996338;28;20486;-70